sensor_id;sensor_type;location;lat;lon;timestamp;P1;durP1;ratioP1;P2;durP2;ratioP2
23252;SDS011;11795;47.054;15.408;2024-01-10T00:00:00;8.9;;;5.6;;
23252;SDS011;11795;47.054;15.408;2024-01-10T00:02:00;8.9;;;5.6;;
23252;SDS011;11795;47.054;15.408;2024-01-10T00:04:00;8.9;;;5.6;;
23252;SDS011;11795;47.054;15.408;2024-01-10T00:06:00;9.4;;;5.6;;
23252;SDS011;11795;47.054;15.408;2024-01-10T00:08:00;9.4;;;5.6;;
23252;SDS011;11795;47.054;15.408;2024-01-10T00:10:01;8.3;;;5.8;;
23252;SDS011;11795;47.054;15.408;2024-01-10T00:12:00;8.3;;;5.8;;
23252;SDS011;11795;47.054;15.408;2024-01-10T00:14:00;8.3;;;5.8;;
23252;SDS011;11795;47.054;15.408;2024-01-10T00:16:00;8.1;;;5.5;;
23252;SDS011;11795;47.054;15.408;2024-01-10T00:18:00;8.1;;;5.5;;
23252;SDS011;11795;47.054;15.408;2024-01-10T00:20:00;10.0;;;5.7;;
23252;SDS011;11795;47.054;15.408;2024-01-10T00:22:00;10.0;;;5.7;;
23252;SDS011;11795;47.054;15.408;2024-01-10T00:24:00;10.0;;;5.7;;
23252;SDS011;11795;47.054;15.408;2024-01-10T00:26:00;8.9;;;5.9;;
23252;SDS011;11795;47.054;15.408;2024-01-10T00:28:00;8.9;;;5.9;;
23252;SDS011;11795;47.054;15.408;2024-01-10T00:30:00;8.5;;;5.5;;
23252;SDS011;11795;47.054;15.408;2024-01-10T00:32:00;8.5;;;5.5;;
23252;SDS011;11795;47.054;15.408;2024-01-10T00:34:00;8.5;;;5.5;;
23252;SDS011;11795;47.054;15.408;2024-01-10T00:36:00;9.7;;;6.2;;
23252;SDS011;11795;47.054;15.408;2024-01-10T00:38:00;9.7;;;6.2;;
23252;SDS011;11795;47.054;15.408;2024-01-10T00:40:00;7.7;;;5.4;;
23252;SDS011;11795;47.054;15.408;2024-01-10T00:42:00;7.7;;;5.4;;
23252;SDS011;11795;47.054;15.408;2024-01-10T00:44:00;7.7;;;5.4;;
23252;SDS011;11795;47.054;15.408;2024-01-10T00:46:00;10.0;;;6.3;;
23252;SDS011;11795;47.054;15.408;2024-01-10T00:48:00;10.0;;;6.3;;
23252;SDS011;11795;47.054;15.408;2024-01-10T00:50:00;8.9;;;6.5;;
23252;SDS011;11795;47.054;15.408;2024-01-10T00:52:00;8.9;;;6.5;;
23252;SDS011;11795;47.054;15.408;2024-01-10T00:54:02;8.9;;;6.5;;
23252;SDS011;11795;47.054;15.408;2024-01-10T00:56:01;11.0;;;6.8;;
23252;SDS011;11795;47.054;15.408;2024-01-10T00:58:00;11.0;;;6.8;;
23252;SDS011;11795;47.054;15.408;2024-01-10T01:00:01;9.3;;;6.6;;
23252;SDS011;11795;47.054;15.408;2024-01-10T01:02:00;9.3;;;6.6;;
23252;SDS011;11795;47.054;15.408;2024-01-10T01:04:01;9.3;;;6.6;;
23252;SDS011;11795;47.054;15.408;2024-01-10T01:06:00;9.7;;;6.2;;
23252;SDS011;11795;47.054;15.408;2024-01-10T01:08:00;9.7;;;6.2;;
23252;SDS011;11795;47.054;15.408;2024-01-10T01:10:00;8.9;;;5.9;;
23252;SDS011;11795;47.054;15.408;2024-01-10T01:12:01;8.9;;;5.9;;
23252;SDS011;11795;47.054;15.408;2024-01-10T01:14:00;8.9;;;5.9;;
23252;SDS011;11795;47.054;15.408;2024-01-10T01:16:00;10.2;;;6.0;;
23252;SDS011;11795;47.054;15.408;2024-01-10T01:18:01;10.2;;;6.0;;
23252;SDS011;11795;47.054;15.408;2024-01-10T01:20:01;8.0;;;5.4;;
23252;SDS011;11795;47.054;15.408;2024-01-10T01:22:00;8.0;;;5.4;;
23252;SDS011;11795;47.054;15.408;2024-01-10T01:24:00;8.0;;;5.4;;
23252;SDS011;11795;47.054;15.408;2024-01-10T01:26:00;8.3;;;6.2;;
23252;SDS011;11795;47.054;15.408;2024-01-10T01:28:00;8.3;;;6.2;;
23252;SDS011;11795;47.054;15.408;2024-01-10T01:30:00;7.4;;;5.6;;
23252;SDS011;11795;47.054;15.408;2024-01-10T01:32:00;7.4;;;5.6;;
23252;SDS011;11795;47.054;15.408;2024-01-10T01:34:00;7.4;;;5.6;;
23252;SDS011;11795;47.054;15.408;2024-01-10T01:36:01;8.6;;;6.1;;
23252;SDS011;11795;47.054;15.408;2024-01-10T01:38:00;8.6;;;6.1;;
23252;SDS011;11795;47.054;15.408;2024-01-10T01:40:00;10.3;;;6.3;;
23252;SDS011;11795;47.054;15.408;2024-01-10T01:42:00;10.3;;;6.3;;
23252;SDS011;11795;47.054;15.408;2024-01-10T01:44:01;10.3;;;6.3;;
23252;SDS011;11795;47.054;15.408;2024-01-10T01:46:01;9.6;;;6.2;;
23252;SDS011;11795;47.054;15.408;2024-01-10T01:48:00;9.6;;;6.2;;
23252;SDS011;11795;47.054;15.408;2024-01-10T01:50:00;9.8;;;6.3;;
23252;SDS011;11795;47.054;15.408;2024-01-10T01:52:00;9.8;;;6.3;;
23252;SDS011;11795;47.054;15.408;2024-01-10T01:54:00;9.8;;;6.3;;
23252;SDS011;11795;47.054;15.408;2024-01-10T01:56:02;9.3;;;6.0;;
23252;SDS011;11795;47.054;15.408;2024-01-10T01:58:00;9.3;;;6.0;;
23252;SDS011;11795;47.054;15.408;2024-01-10T02:00:00;9.4;;;5.8;;
23252;SDS011;11795;47.054;15.408;2024-01-10T02:02:00;9.4;;;5.8;;
23252;SDS011;11795;47.054;15.408;2024-01-10T02:04:00;9.4;;;5.8;;
23252;SDS011;11795;47.054;15.408;2024-01-10T02:06:01;8.5;;;5.9;;
23252;SDS011;11795;47.054;15.408;2024-01-10T02:08:00;8.5;;;5.9;;
23252;SDS011;11795;47.054;15.408;2024-01-10T02:10:00;8.5;;;5.7;;
23252;SDS011;11795;47.054;15.408;2024-01-10T02:12:00;8.5;;;5.7;;
23252;SDS011;11795;47.054;15.408;2024-01-10T02:14:00;8.5;;;5.7;;
23252;SDS011;11795;47.054;15.408;2024-01-10T02:16:00;9.0;;;6.0;;
23252;SDS011;11795;47.054;15.408;2024-01-10T02:18:00;9.0;;;6.0;;
23252;SDS011;11795;47.054;15.408;2024-01-10T02:20:07;9.1;;;5.6;;
23252;SDS011;11795;47.054;15.408;2024-01-10T02:22:00;9.1;;;5.6;;
23252;SDS011;11795;47.054;15.408;2024-01-10T02:24:00;9.1;;;5.6;;
23252;SDS011;11795;47.054;15.408;2024-01-10T02:26:00;8.8;;;5.4;;
23252;SDS011;11795;47.054;15.408;2024-01-10T02:28:00;8.8;;;5.4;;
23252;SDS011;11795;47.054;15.408;2024-01-10T02:30:00;9.4;;;5.8;;
23252;SDS011;11795;47.054;15.408;2024-01-10T02:32:00;9.4;;;5.8;;
23252;SDS011;11795;47.054;15.408;2024-01-10T02:34:00;9.4;;;5.8;;
23252;SDS011;11795;47.054;15.408;2024-01-10T02:36:00;8.7;;;5.8;;
23252;SDS011;11795;47.054;15.408;2024-01-10T02:38:01;8.7;;;5.8;;
23252;SDS011;11795;47.054;15.408;2024-01-10T02:40:00;10.3;;;5.8;;
23252;SDS011;11795;47.054;15.408;2024-01-10T02:42:00;10.3;;;5.8;;
23252;SDS011;11795;47.054;15.408;2024-01-10T02:44:00;10.3;;;5.8;;
23252;SDS011;11795;47.054;15.408;2024-01-10T02:46:00;10.2;;;6.2;;
23252;SDS011;11795;47.054;15.408;2024-01-10T02:48:00;10.2;;;6.2;;
23252;SDS011;11795;47.054;15.408;2024-01-10T02:50:00;9.5;;;6.3;;
23252;SDS011;11795;47.054;15.408;2024-01-10T02:52:00;9.5;;;6.3;;
23252;SDS011;11795;47.054;15.408;2024-01-10T02:54:00;9.5;;;6.3;;
23252;SDS011;11795;47.054;15.408;2024-01-10T02:56:00;9.4;;;6.2;;
23252;SDS011;11795;47.054;15.408;2024-01-10T02:58:00;9.4;;;6.2;;
23252;SDS011;11795;47.054;15.408;2024-01-10T03:00:00;9.0;;;6.3;;
23252;SDS011;11795;47.054;15.408;2024-01-10T03:02:00;9.0;;;6.3;;
23252;SDS011;11795;47.054;15.408;2024-01-10T03:04:00;9.0;;;6.3;;
23252;SDS011;11795;47.054;15.408;2024-01-10T03:06:00;11.6;;;7.3;;
23252;SDS011;11795;47.054;15.408;2024-01-10T03:08:02;11.6;;;7.3;;
23252;SDS011;11795;47.054;15.408;2024-01-10T03:10:00;10.9;;;6.8;;
23252;SDS011;11795;47.054;15.408;2024-01-10T03:12:00;10.9;;;6.8;;
23252;SDS011;11795;47.054;15.408;2024-01-10T03:14:00;10.9;;;6.8;;
23252;SDS011;11795;47.054;15.408;2024-01-10T03:16:00;10.9;;;7.7;;
23252;SDS011;11795;47.054;15.408;2024-01-10T03:18:00;10.9;;;7.7;;
23252;SDS011;11795;47.054;15.408;2024-01-10T03:20:00;9.1;;;6.5;;
23252;SDS011;11795;47.054;15.408;2024-01-10T03:22:00;9.1;;;6.5;;
23252;SDS011;11795;47.054;15.408;2024-01-10T03:24:00;9.1;;;6.5;;
23252;SDS011;11795;47.054;15.408;2024-01-10T03:26:01;11.5;;;8.1;;
23252;SDS011;11795;47.054;15.408;2024-01-10T03:28:00;11.5;;;8.1;;
23252;SDS011;11795;47.054;15.408;2024-01-10T03:30:00;10.5;;;7.6;;
23252;SDS011;11795;47.054;15.408;2024-01-10T03:32:00;10.5;;;7.6;;
23252;SDS011;11795;47.054;15.408;2024-01-10T03:34:00;10.5;;;7.6;;
23252;SDS011;11795;47.054;15.408;2024-01-10T03:36:00;10.4;;;7.1;;
23252;SDS011;11795;47.054;15.408;2024-01-10T03:38:00;10.4;;;7.1;;
23252;SDS011;11795;47.054;15.408;2024-01-10T03:40:00;10.9;;;7.5;;
23252;SDS011;11795;47.054;15.408;2024-01-10T03:42:00;10.9;;;7.5;;
23252;SDS011;11795;47.054;15.408;2024-01-10T03:44:00;10.9;;;7.5;;
23252;SDS011;11795;47.054;15.408;2024-01-10T03:46:00;13.7;;;8.1;;
23252;SDS011;11795;47.054;15.408;2024-01-10T03:48:00;13.7;;;8.1;;
23252;SDS011;11795;47.054;15.408;2024-01-10T03:50:00;10.6;;;7.7;;
23252;SDS011;11795;47.054;15.408;2024-01-10T03:52:00;10.6;;;7.7;;
23252;SDS011;11795;47.054;15.408;2024-01-10T03:54:00;10.6;;;7.7;;
23252;SDS011;11795;47.054;15.408;2024-01-10T03:56:03;10.3;;;7.5;;
23252;SDS011;11795;47.054;15.408;2024-01-10T03:58:00;10.3;;;7.5;;
23252;SDS011;11795;47.054;15.408;2024-01-10T04:00:00;10.1;;;7.2;;
23252;SDS011;11795;47.054;15.408;2024-01-10T04:02:00;10.1;;;7.2;;
23252;SDS011;11795;47.054;15.408;2024-01-10T04:04:00;10.1;;;7.2;;
23252;SDS011;11795;47.054;15.408;2024-01-10T04:06:00;11.8;;;7.3;;
23252;SDS011;11795;47.054;15.408;2024-01-10T04:08:00;11.8;;;7.3;;
23252;SDS011;11795;47.054;15.408;2024-01-10T04:10:00;10.4;;;7.0;;
23252;SDS011;11795;47.054;15.408;2024-01-10T04:12:00;10.4;;;7.0;;
23252;SDS011;11795;47.054;15.408;2024-01-10T04:14:00;10.4;;;7.0;;
23252;SDS011;11795;47.054;15.408;2024-01-10T04:16:00;10.4;;;6.3;;
23252;SDS011;11795;47.054;15.408;2024-01-10T04:18:00;10.4;;;6.3;;
23252;SDS011;11795;47.054;15.408;2024-01-10T04:20:00;12.6;;;7.1;;
23252;SDS011;11795;47.054;15.408;2024-01-10T04:22:00;12.6;;;7.1;;
23252;SDS011;11795;47.054;15.408;2024-01-10T04:24:00;12.6;;;7.1;;
23252;SDS011;11795;47.054;15.408;2024-01-10T04:26:00;12.1;;;8.0;;
23252;SDS011;11795;47.054;15.408;2024-01-10T04:28:01;12.1;;;8.0;;
23252;SDS011;11795;47.054;15.408;2024-01-10T04:30:00;13.6;;;8.7;;
23252;SDS011;11795;47.054;15.408;2024-01-10T04:32:00;13.6;;;8.7;;
23252;SDS011;11795;47.054;15.408;2024-01-10T04:34:00;13.6;;;8.7;;
23252;SDS011;11795;47.054;15.408;2024-01-10T04:36:00;10.8;;;7.6;;
23252;SDS011;11795;47.054;15.408;2024-01-10T04:38:00;10.8;;;7.6;;
23252;SDS011;11795;47.054;15.408;2024-01-10T04:40:00;10.1;;;6.7;;
23252;SDS011;11795;47.054;15.408;2024-01-10T04:42:00;10.1;;;6.7;;
23252;SDS011;11795;47.054;15.408;2024-01-10T04:44:00;10.1;;;6.7;;
23252;SDS011;11795;47.054;15.408;2024-01-10T04:46:00;11.1;;;6.7;;
23252;SDS011;11795;47.054;15.408;2024-01-10T04:48:00;11.1;;;6.7;;
23252;SDS011;11795;47.054;15.408;2024-01-10T04:50:00;10.0;;;7.0;;
23252;SDS011;11795;47.054;15.408;2024-01-10T04:52:00;10.0;;;7.0;;
23252;SDS011;11795;47.054;15.408;2024-01-10T04:54:00;10.0;;;7.0;;
23252;SDS011;11795;47.054;15.408;2024-01-10T04:56:00;9.9;;;6.8;;
23252;SDS011;11795;47.054;15.408;2024-01-10T04:58:00;9.9;;;6.8;;
23252;SDS011;11795;47.054;15.408;2024-01-10T05:00:00;10.5;;;7.2;;
23252;SDS011;11795;47.054;15.408;2024-01-10T05:02:00;10.5;;;7.2;;
23252;SDS011;11795;47.054;15.408;2024-01-10T05:04:00;10.5;;;7.2;;
23252;SDS011;11795;47.054;15.408;2024-01-10T05:06:00;12.4;;;7.4;;
23252;SDS011;11795;47.054;15.408;2024-01-10T05:08:01;12.4;;;7.4;;
23252;SDS011;11795;47.054;15.408;2024-01-10T05:10:00;10.0;;;6.9;;
23252;SDS011;11795;47.054;15.408;2024-01-10T05:12:00;10.0;;;6.9;;
23252;SDS011;11795;47.054;15.408;2024-01-10T05:14:00;10.0;;;6.9;;
23252;SDS011;11795;47.054;15.408;2024-01-10T05:16:00;13.1;;;7.3;;
23252;SDS011;11795;47.054;15.408;2024-01-10T05:18:00;13.1;;;7.3;;
23252;SDS011;11795;47.054;15.408;2024-01-10T05:20:01;10.7;;;7.1;;
23252;SDS011;11795;47.054;15.408;2024-01-10T05:22:00;10.7;;;7.1;;
23252;SDS011;11795;47.054;15.408;2024-01-10T05:24:00;10.7;;;7.1;;
23252;SDS011;11795;47.054;15.408;2024-01-10T05:26:00;10.8;;;7.3;;
23252;SDS011;11795;47.054;15.408;2024-01-10T05:29:59;12.7;;;7.8;;
23252;SDS011;11795;47.054;15.408;2024-01-10T05:31:59;12.7;;;7.8;;
23252;SDS011;11795;47.054;15.408;2024-01-10T05:33:59;12.7;;;7.8;;
23252;SDS011;11795;47.054;15.408;2024-01-10T05:36:00;12.0;;;7.3;;
23252;SDS011;11795;47.054;15.408;2024-01-10T05:37:59;12.0;;;7.3;;
23252;SDS011;11795;47.054;15.408;2024-01-10T05:40:00;19.0;;;10.4;;
23252;SDS011;11795;47.054;15.408;2024-01-10T05:41:59;19.0;;;10.4;;
23252;SDS011;11795;47.054;15.408;2024-01-10T05:43:59;19.0;;;10.4;;
23252;SDS011;11795;47.054;15.408;2024-01-10T05:45:59;80.0;;;36.0;;
23252;SDS011;11795;47.054;15.408;2024-01-10T05:47:59;80.0;;;36.0;;
23252;SDS011;11795;47.054;15.408;2024-01-10T05:50:00;38.0;;;19.7;;
23252;SDS011;11795;47.054;15.408;2024-01-10T05:51:59;38.0;;;19.7;;
23252;SDS011;11795;47.054;15.408;2024-01-10T05:53:59;38.0;;;19.7;;
23252;SDS011;11795;47.054;15.408;2024-01-10T05:56:00;32.3;;;16.8;;
23252;SDS011;11795;47.054;15.408;2024-01-10T05:57:59;32.3;;;16.8;;
23252;SDS011;11795;47.054;15.408;2024-01-10T05:59:59;27.4;;;14.7;;
23252;SDS011;11795;47.054;15.408;2024-01-10T06:01:59;27.4;;;14.7;;
23252;SDS011;11795;47.054;15.408;2024-01-10T06:03:59;27.4;;;14.7;;
23252;SDS011;11795;47.054;15.408;2024-01-10T06:05:59;18.9;;;11.8;;
23252;SDS011;11795;47.054;15.408;2024-01-10T06:07:59;18.9;;;11.8;;
23252;SDS011;11795;47.054;15.408;2024-01-10T06:09:59;20.4;;;11.8;;
23252;SDS011;11795;47.054;15.408;2024-01-10T06:11:59;20.4;;;11.8;;
23252;SDS011;11795;47.054;15.408;2024-01-10T06:13:59;20.4;;;11.8;;
23252;SDS011;11795;47.054;15.408;2024-01-10T06:15:59;51.6;;;26.3;;
23252;SDS011;11795;47.054;15.408;2024-01-10T06:17:59;51.6;;;26.3;;
23252;SDS011;11795;47.054;15.408;2024-01-10T06:20:00;45.5;;;24.8;;
23252;SDS011;11795;47.054;15.408;2024-01-10T06:21:59;45.5;;;24.8;;
23252;SDS011;11795;47.054;15.408;2024-01-10T06:23:59;45.5;;;24.8;;
23252;SDS011;11795;47.054;15.408;2024-01-10T06:25:59;31.2;;;18.1;;
23252;SDS011;11795;47.054;15.408;2024-01-10T06:27:59;31.2;;;18.1;;
23252;SDS011;11795;47.054;15.408;2024-01-10T06:30:00;24.7;;;12.8;;
23252;SDS011;11795;47.054;15.408;2024-01-10T06:32:01;24.7;;;12.8;;
23252;SDS011;11795;47.054;15.408;2024-01-10T06:33:59;24.7;;;12.8;;
23252;SDS011;11795;47.054;15.408;2024-01-10T06:35:59;20.7;;;11.4;;
23252;SDS011;11795;47.054;15.408;2024-01-10T06:37:59;20.7;;;11.4;;
23252;SDS011;11795;47.054;15.408;2024-01-10T06:40:00;14.6;;;9.7;;
23252;SDS011;11795;47.054;15.408;2024-01-10T06:41:59;14.6;;;9.7;;
23252;SDS011;11795;47.054;15.408;2024-01-10T06:44:03;14.6;;;9.7;;
23252;SDS011;11795;47.054;15.408;2024-01-10T06:45:59;12.3;;;8.8;;
23252;SDS011;11795;47.054;15.408;2024-01-10T06:47:59;12.3;;;8.8;;
23252;SDS011;11795;47.054;15.408;2024-01-10T06:49:59;16.1;;;10.0;;
23252;SDS011;11795;47.054;15.408;2024-01-10T06:52:00;16.1;;;10.0;;
23252;SDS011;11795;47.054;15.408;2024-01-10T06:54:03;16.1;;;10.0;;
23252;SDS011;11795;47.054;15.408;2024-01-10T06:56:00;16.5;;;9.6;;
23252;SDS011;11795;47.054;15.408;2024-01-10T06:57:59;16.5;;;9.6;;
23252;SDS011;11795;47.054;15.408;2024-01-10T06:59:59;15.5;;;10.2;;
23252;SDS011;11795;47.054;15.408;2024-01-10T07:02:01;15.5;;;10.2;;
23252;SDS011;11795;47.054;15.408;2024-01-10T07:03:59;15.5;;;10.2;;
23252;SDS011;11795;47.054;15.408;2024-01-10T07:05:59;16.1;;;10.5;;
23252;SDS011;11795;47.054;15.408;2024-01-10T07:08:03;16.1;;;10.5;;
23252;SDS011;11795;47.054;15.408;2024-01-10T07:10:00;18.0;;;10.5;;
23252;SDS011;11795;47.054;15.408;2024-01-10T07:12:00;18.0;;;10.5;;
23252;SDS011;11795;47.054;15.408;2024-01-10T07:14:01;18.0;;;10.5;;
23252;SDS011;11795;47.054;15.408;2024-01-10T07:16:02;12.6;;;8.6;;
23252;SDS011;11795;47.054;15.408;2024-01-10T07:17:59;12.6;;;8.6;;
23252;SDS011;11795;47.054;15.408;2024-01-10T07:19:59;13.1;;;8.7;;
23252;SDS011;11795;47.054;15.408;2024-01-10T07:22:00;13.1;;;8.7;;
23252;SDS011;11795;47.054;15.408;2024-01-10T07:23:59;13.1;;;8.7;;
23252;SDS011;11795;47.054;15.408;2024-01-10T07:26:00;14.4;;;8.8;;
23252;SDS011;11795;47.054;15.408;2024-01-10T07:27:59;14.4;;;8.8;;
23252;SDS011;11795;47.054;15.408;2024-01-10T07:29:59;12.8;;;8.9;;
23252;SDS011;11795;47.054;15.408;2024-01-10T07:31:59;12.8;;;8.9;;
23252;SDS011;11795;47.054;15.408;2024-01-10T07:33:59;12.8;;;8.9;;
23252;SDS011;11795;47.054;15.408;2024-01-10T07:36:00;16.0;;;9.5;;
23252;SDS011;11795;47.054;15.408;2024-01-10T07:37:59;16.0;;;9.5;;
23252;SDS011;11795;47.054;15.408;2024-01-10T07:39:59;14.0;;;9.3;;
23252;SDS011;11795;47.054;15.408;2024-01-10T07:42:02;14.0;;;9.3;;
23252;SDS011;11795;47.054;15.408;2024-01-10T07:43:59;14.0;;;9.3;;
23252;SDS011;11795;47.054;15.408;2024-01-10T07:46:01;17.0;;;10.1;;
23252;SDS011;11795;47.054;15.408;2024-01-10T07:48:00;17.0;;;10.1;;
23252;SDS011;11795;47.054;15.408;2024-01-10T07:49:59;16.2;;;10.0;;
23252;SDS011;11795;47.054;15.408;2024-01-10T07:52:00;16.2;;;10.0;;
23252;SDS011;11795;47.054;15.408;2024-01-10T07:54:00;16.2;;;10.0;;
23252;SDS011;11795;47.054;15.408;2024-01-10T07:55:59;16.3;;;9.0;;
23252;SDS011;11795;47.054;15.408;2024-01-10T07:57:59;16.3;;;9.0;;
23252;SDS011;11795;47.054;15.408;2024-01-10T07:59:59;13.9;;;9.0;;
23252;SDS011;11795;47.054;15.408;2024-01-10T08:02:00;13.9;;;9.0;;
23252;SDS011;11795;47.054;15.408;2024-01-10T08:03:59;13.9;;;9.0;;
23252;SDS011;11795;47.054;15.408;2024-01-10T08:06:00;13.6;;;8.7;;
23252;SDS011;11795;47.054;15.408;2024-01-10T08:07:59;13.6;;;8.7;;
23252;SDS011;11795;47.054;15.408;2024-01-10T08:09:59;14.0;;;8.8;;
23252;SDS011;11795;47.054;15.408;2024-01-10T08:11:59;14.0;;;8.8;;
23252;SDS011;11795;47.054;15.408;2024-01-10T08:13:59;14.0;;;8.8;;
23252;SDS011;11795;47.054;15.408;2024-01-10T08:15:59;14.2;;;9.3;;
23252;SDS011;11795;47.054;15.408;2024-01-10T08:17:59;14.2;;;9.3;;
23252;SDS011;11795;47.054;15.408;2024-01-10T08:20:00;14.8;;;9.7;;
23252;SDS011;11795;47.054;15.408;2024-01-10T08:21:59;14.8;;;9.7;;
23252;SDS011;11795;47.054;15.408;2024-01-10T08:24:00;14.8;;;9.7;;
23252;SDS011;11795;47.054;15.408;2024-01-10T08:25:59;13.0;;;8.9;;
23252;SDS011;11795;47.054;15.408;2024-01-10T08:28:01;13.0;;;8.9;;
23252;SDS011;11795;47.054;15.408;2024-01-10T08:29:59;13.7;;;9.3;;
23252;SDS011;11795;47.054;15.408;2024-01-10T08:31:59;13.7;;;9.3;;
23252;SDS011;11795;47.054;15.408;2024-01-10T08:33:59;13.7;;;9.3;;
23252;SDS011;11795;47.054;15.408;2024-01-10T08:35:59;13.5;;;9.3;;
23252;SDS011;11795;47.054;15.408;2024-01-10T08:37:59;13.5;;;9.3;;
23252;SDS011;11795;47.054;15.408;2024-01-10T08:40:01;14.3;;;9.3;;
23252;SDS011;11795;47.054;15.408;2024-01-10T08:41:59;14.3;;;9.3;;
23252;SDS011;11795;47.054;15.408;2024-01-10T08:44:00;14.3;;;9.3;;
23252;SDS011;11795;47.054;15.408;2024-01-10T08:45:59;14.2;;;8.5;;
23252;SDS011;11795;47.054;15.408;2024-01-10T08:47:59;14.2;;;8.5;;
23252;SDS011;11795;47.054;15.408;2024-01-10T08:50:00;11.8;;;8.6;;
23252;SDS011;11795;47.054;15.408;2024-01-10T08:51:59;11.8;;;8.6;;
23252;SDS011;11795;47.054;15.408;2024-01-10T08:53:59;11.8;;;8.6;;
23252;SDS011;11795;47.054;15.408;2024-01-10T08:55:59;11.8;;;8.4;;
23252;SDS011;11795;47.054;15.408;2024-01-10T08:57:59;11.8;;;8.4;;
23252;SDS011;11795;47.054;15.408;2024-01-10T09:00:00;15.0;;;9.5;;
23252;SDS011;11795;47.054;15.408;2024-01-10T09:02:00;15.0;;;9.5;;
23252;SDS011;11795;47.054;15.408;2024-01-10T09:03:59;15.0;;;9.5;;
23252;SDS011;11795;47.054;15.408;2024-01-10T09:05:59;16.2;;;9.9;;
23252;SDS011;11795;47.054;15.408;2024-01-10T09:08:00;16.2;;;9.9;;
23252;SDS011;11795;47.054;15.408;2024-01-10T09:09:59;15.5;;;10.0;;
23252;SDS011;11795;47.054;15.408;2024-01-10T09:11:59;15.5;;;10.0;;
23252;SDS011;11795;47.054;15.408;2024-01-10T09:13:59;15.5;;;10.0;;
23252;SDS011;11795;47.054;15.408;2024-01-10T09:15:59;17.3;;;9.9;;
23252;SDS011;11795;47.054;15.408;2024-01-10T09:18:00;17.3;;;9.9;;
23252;SDS011;11795;47.054;15.408;2024-01-10T09:20:02;14.7;;;9.5;;
23252;SDS011;11795;47.054;15.408;2024-01-10T09:21:59;14.7;;;9.5;;
23252;SDS011;11795;47.054;15.408;2024-01-10T09:23:59;14.7;;;9.5;;
23252;SDS011;11795;47.054;15.408;2024-01-10T09:25:59;16.7;;;9.2;;
23252;SDS011;11795;47.054;15.408;2024-01-10T09:27:59;16.7;;;9.2;;
23252;SDS011;11795;47.054;15.408;2024-01-10T09:30:00;15.4;;;10.0;;
23252;SDS011;11795;47.054;15.408;2024-01-10T09:32:00;15.4;;;10.0;;
23252;SDS011;11795;47.054;15.408;2024-01-10T09:33:59;15.4;;;10.0;;
23252;SDS011;11795;47.054;15.408;2024-01-10T09:35:59;15.9;;;10.1;;
23252;SDS011;11795;47.054;15.408;2024-01-10T09:38:00;15.9;;;10.1;;
23252;SDS011;11795;47.054;15.408;2024-01-10T09:39:59;13.9;;;9.3;;
23252;SDS011;11795;47.054;15.408;2024-01-10T09:41:59;13.9;;;9.3;;
23252;SDS011;11795;47.054;15.408;2024-01-10T09:43:59;13.9;;;9.3;;
23252;SDS011;11795;47.054;15.408;2024-01-10T09:46:00;14.3;;;9.4;;
23252;SDS011;11795;47.054;15.408;2024-01-10T09:47:59;14.3;;;9.4;;
23252;SDS011;11795;47.054;15.408;2024-01-10T09:50:02;14.3;;;9.6;;
23252;SDS011;11795;47.054;15.408;2024-01-10T09:52:00;14.3;;;9.6;;
23252;SDS011;11795;47.054;15.408;2024-01-10T09:54:00;14.3;;;9.6;;
23252;SDS011;11795;47.054;15.408;2024-01-10T09:56:03;14.2;;;10.0;;
23252;SDS011;11795;47.054;15.408;2024-01-10T09:58:01;14.2;;;10.0;;
23252;SDS011;11795;47.054;15.408;2024-01-10T10:00:02;15.4;;;10.5;;
23252;SDS011;11795;47.054;15.408;2024-01-10T10:01:59;15.4;;;10.5;;
23252;SDS011;11795;47.054;15.408;2024-01-10T10:03:59;15.4;;;10.5;;
23252;SDS011;11795;47.054;15.408;2024-01-10T10:06:00;14.9;;;10.3;;
23252;SDS011;11795;47.054;15.408;2024-01-10T10:07:59;14.9;;;10.3;;
23252;SDS011;11795;47.054;15.408;2024-01-10T10:09:59;13.7;;;10.2;;
23252;SDS011;11795;47.054;15.408;2024-01-10T10:11:59;13.7;;;10.2;;
23252;SDS011;11795;47.054;15.408;2024-01-10T10:14:09;13.7;;;10.2;;
23252;SDS011;11795;47.054;15.408;2024-01-10T10:16:00;15.2;;;10.6;;
23252;SDS011;11795;47.054;15.408;2024-01-10T10:17:59;15.2;;;10.6;;
23252;SDS011;11795;47.054;15.408;2024-01-10T10:20:02;14.3;;;10.1;;
23252;SDS011;11795;47.054;15.408;2024-01-10T10:22:02;14.3;;;10.1;;
23252;SDS011;11795;47.054;15.408;2024-01-10T10:24:00;14.3;;;10.1;;
23252;SDS011;11795;47.054;15.408;2024-01-10T10:26:01;14.4;;;9.8;;
23252;SDS011;11795;47.054;15.408;2024-01-10T10:28:00;14.4;;;9.8;;
23252;SDS011;11795;47.054;15.408;2024-01-10T10:30:00;14.7;;;10.5;;
23252;SDS011;11795;47.054;15.408;2024-01-10T10:32:00;14.7;;;10.5;;
23252;SDS011;11795;47.054;15.408;2024-01-10T10:34:00;14.7;;;10.5;;
23252;SDS011;11795;47.054;15.408;2024-01-10T10:35:59;14.8;;;10.6;;
23252;SDS011;11795;47.054;15.408;2024-01-10T10:37:59;14.8;;;10.6;;
23252;SDS011;11795;47.054;15.408;2024-01-10T10:39:59;14.9;;;10.0;;
23252;SDS011;11795;47.054;15.408;2024-01-10T10:42:00;14.9;;;10.0;;
23252;SDS011;11795;47.054;15.408;2024-01-10T10:44:00;14.9;;;10.0;;
23252;SDS011;11795;47.054;15.408;2024-01-10T10:45:59;15.0;;;10.6;;
23252;SDS011;11795;47.054;15.408;2024-01-10T10:48:00;15.0;;;10.6;;
23252;SDS011;11795;47.054;15.408;2024-01-10T10:50:00;14.2;;;10.0;;
23252;SDS011;11795;47.054;15.408;2024-01-10T10:51:59;14.2;;;10.0;;
23252;SDS011;11795;47.054;15.408;2024-01-10T10:53:59;14.2;;;10.0;;
23252;SDS011;11795;47.054;15.408;2024-01-10T10:55:59;14.8;;;10.1;;
23252;SDS011;11795;47.054;15.408;2024-01-10T10:57:59;14.8;;;10.1;;
23252;SDS011;11795;47.054;15.408;2024-01-10T11:00:00;15.3;;;10.0;;
23252;SDS011;11795;47.054;15.408;2024-01-10T11:02:00;15.3;;;10.0;;
23252;SDS011;11795;47.054;15.408;2024-01-10T11:03:59;15.3;;;10.0;;
23252;SDS011;11795;47.054;15.408;2024-01-10T11:06:01;14.6;;;10.1;;
23252;SDS011;11795;47.054;15.408;2024-01-10T11:07:59;14.6;;;10.1;;
23252;SDS011;11795;47.054;15.408;2024-01-10T11:10:00;13.8;;;9.1;;
23252;SDS011;11795;47.054;15.408;2024-01-10T11:12:03;13.8;;;9.1;;
23252;SDS011;11795;47.054;15.408;2024-01-10T11:14:04;13.8;;;9.1;;
23252;SDS011;11795;47.054;15.408;2024-01-10T11:16:07;14.1;;;10.0;;
23252;SDS011;11795;47.054;15.408;2024-01-10T11:18:03;14.1;;;10.0;;
23252;SDS011;11795;47.054;15.408;2024-01-10T11:20:09;14.0;;;10.0;;
23252;SDS011;11795;47.054;15.408;2024-01-10T11:22:01;14.0;;;10.0;;
23252;SDS011;11795;47.054;15.408;2024-01-10T11:23:59;14.0;;;10.0;;
23252;SDS011;11795;47.054;15.408;2024-01-10T11:25:59;13.4;;;9.5;;
23252;SDS011;11795;47.054;15.408;2024-01-10T11:28:02;13.4;;;9.5;;
23252;SDS011;11795;47.054;15.408;2024-01-10T11:29:59;14.0;;;10.1;;
23252;SDS011;11795;47.054;15.408;2024-01-10T11:31:59;14.0;;;10.1;;
23252;SDS011;11795;47.054;15.408;2024-01-10T11:34:00;14.0;;;10.1;;
23252;SDS011;11795;47.054;15.408;2024-01-10T11:37:59;16.9;;;11.3;;
23252;SDS011;11795;47.054;15.408;2024-01-10T11:40:00;16.5;;;10.7;;
23252;SDS011;11795;47.054;15.408;2024-01-10T11:41:59;16.5;;;10.7;;
23252;SDS011;11795;47.054;15.408;2024-01-10T11:45:59;14.9;;;10.6;;
23252;SDS011;11795;47.054;15.408;2024-01-10T11:47:59;14.9;;;10.6;;
23252;SDS011;11795;47.054;15.408;2024-01-10T11:50:02;16.0;;;10.9;;
23252;SDS011;11795;47.054;15.408;2024-01-10T11:52:01;16.0;;;10.9;;
23252;SDS011;11795;47.054;15.408;2024-01-10T11:53:59;16.0;;;10.9;;
23252;SDS011;11795;47.054;15.408;2024-01-10T11:56:02;15.9;;;10.4;;
23252;SDS011;11795;47.054;15.408;2024-01-10T11:58:03;15.9;;;10.4;;
23252;SDS011;11795;47.054;15.408;2024-01-10T12:00:00;15.9;;;10.1;;
23252;SDS011;11795;47.054;15.408;2024-01-10T12:01:59;15.9;;;10.1;;
23252;SDS011;11795;47.054;15.408;2024-01-10T12:04:00;15.9;;;10.1;;
23252;SDS011;11795;47.054;15.408;2024-01-10T12:06:00;15.1;;;10.3;;